createdAt,value
2023-04-21T00:02:26.560Z,99521.66
2023-04-21T00:06:28.048Z,99524.41
2023-04-21T00:10:29.542Z,99517.91
2023-04-21T00:14:31.009Z,99515.19
2023-04-21T00:18:33.936Z,99513.16
2023-04-21T00:22:35.406Z,99512.31
2023-04-21T00:26:36.991Z,99513.59
2023-04-21T00:30:38.556Z,99510.69
2023-04-21T00:34:41.440Z,99501.03
2023-04-21T00:38:42.864Z,99500.66
2023-04-21T00:42:44.304Z,99506.53
2023-04-21T00:46:45.830Z,99498.63
2023-04-21T00:50:48.683Z,99496.31
2023-04-21T00:54:50.369Z,99491.09
2023-04-21T00:58:53.700Z,99488.63
2023-04-21T01:02:55.898Z,99483.63
2023-04-21T01:06:58.812Z,99492.94
2023-04-21T01:11:00.243Z,99492.75
2023-04-21T01:15:01.701Z,99490.25
2023-04-21T01:19:03.141Z,99489.81
2023-04-21T01:23:06.211Z,99485.69
2023-04-21T01:27:12.119Z,99476.94
2023-04-21T01:31:13.461Z,99481.13
2023-04-21T01:35:14.887Z,99481.53
2023-04-21T01:39:17.982Z,99482.59
2023-04-21T01:43:23.375Z,99474.88
2023-04-21T01:47:25.260Z,99479.47
2023-04-21T01:51:27.243Z,99469.44
2023-04-21T01:55:30.227Z,99473.22
2023-04-21T01:59:31.678Z,99469.84
2023-04-21T02:03:33.166Z,99461.91
2023-04-21T02:07:34.759Z,99463.59
2023-04-21T02:11:37.566Z,99453.56
2023-04-21T02:15:39.048Z,99454.38
2023-04-21T02:19:40.518Z,99451.06
2023-04-21T02:23:41.963Z,99451.50
2023-04-21T02:27:44.750Z,99459.88
2023-04-21T02:31:57.878Z,99462.78
2023-04-21T02:36:05.617Z,99462.38
2023-04-21T02:40:08.409Z,99469.69
2023-04-21T02:44:11.183Z,99464.84
2023-04-21T02:48:12.703Z,99456.53
2023-04-21T02:52:14.161Z,99457.38
2023-04-21T02:56:15.597Z,99456.31
2023-04-21T03:00:18.820Z,99453.59
2023-04-21T03:04:20.397Z,99458.59
2023-04-21T03:08:21.933Z,99454.84
2023-04-21T03:12:23.368Z,99454.44
2023-04-21T03:16:26.278Z,99459.22
2023-04-21T03:20:27.754Z,99452.75
2023-04-21T03:24:29.194Z,99449.81
2023-04-21T03:28:30.641Z,99441.91
2023-04-21T03:32:33.459Z,99450.66
2023-04-21T03:36:34.915Z,99451.44
2023-04-21T03:40:36.993Z,99450.94
2023-04-21T03:44:38.637Z,99455.13
2023-04-21T03:48:41.423Z,99454.00
2023-04-21T03:52:42.891Z,99457.34
2023-04-21T03:56:44.311Z,99471.03
2023-04-21T04:00:45.791Z,99478.72
2023-04-21T04:04:48.656Z,99475.84
2023-04-21T04:08:50.203Z,99476.25
2023-04-21T04:12:51.633Z,99476.00
2023-04-21T04:16:53.114Z,99481.69
2023-04-21T04:20:55.889Z,99479.66
2023-04-21T04:24:57.324Z,99483.88
2023-04-21T04:28:58.753Z,99485.28
2023-04-21T04:33:00.240Z,99484.47
2023-04-21T04:37:03.234Z,99476.75
2023-04-21T04:41:04.860Z,99482.75
2023-04-21T04:45:07.068Z,99484.91
2023-04-21T04:49:08.497Z,99478.06
2023-04-21T04:53:11.277Z,99484.94
2023-04-21T04:57:12.711Z,99482.06
2023-04-21T05:01:14.824Z,99480.84
2023-04-21T05:05:16.479Z,99487.75
2023-04-21T05:09:19.422Z,99487.78
2023-04-21T05:13:20.856Z,99495.09
2023-04-21T05:17:22.327Z,99489.50
2023-04-21T05:21:24.625Z,99502.88
2023-04-21T05:25:27.426Z,99497.03
2023-04-21T05:29:29.122Z,99499.50
2023-04-21T05:33:30.561Z,99500.31
2023-04-21T05:37:32.064Z,99496.88
2023-04-21T05:41:34.832Z,99506.88
2023-04-21T05:45:39.341Z,99498.44
2023-04-21T05:49:40.796Z,99500.41
2023-04-21T05:53:43.235Z,99491.19
2023-04-21T05:57:46.070Z,99483.66
2023-04-21T06:01:47.504Z,99482.72
2023-04-21T06:05:53.849Z,99477.69
2023-04-21T06:09:55.324Z,99480.50
2023-04-21T06:13:58.140Z,99487.59
2023-04-21T06:17:59.682Z,99476.88
2023-04-21T06:22:01.157Z,99483.53
2023-04-21T06:26:03.902Z,99479.34
2023-04-21T06:30:08.263Z,99466.03
2023-04-21T06:34:09.717Z,99466.31
2023-04-21T06:38:11.137Z,99469.91
2023-04-21T06:42:12.634Z,99465.13
2023-04-21T06:46:15.462Z,99469.91
2023-04-21T06:50:17.072Z,99471.84
2023-04-21T06:54:19.210Z,99458.25
2023-04-21T06:58:21.461Z,99462.41
2023-04-21T07:02:24.514Z,99467.22
2023-04-21T07:06:26.683Z,99463.81
2023-04-21T07:10:28.546Z,99460.84
2023-04-21T07:14:30.005Z,99465.44
2023-04-21T07:18:32.832Z,99465.06
2023-04-21T07:22:34.316Z,99467.00
2023-04-21T07:26:35.774Z,99454.81
2023-04-21T07:30:37.507Z,99454.22
2023-04-21T07:34:40.321Z,99452.16
2023-04-21T07:38:41.763Z,99452.94
2023-04-21T07:42:43.425Z,99446.50
2023-04-21T07:46:45.052Z,99446.88
2023-04-21T07:50:47.922Z,99435.84
2023-04-21T07:54:49.796Z,99443.19
2023-04-21T07:58:51.247Z,99435.13
2023-04-21T08:02:53.842Z,99438.06
2023-04-21T08:06:56.898Z,99434.59
2023-04-21T08:10:58.410Z,99428.59
2023-04-21T08:14:59.888Z,99437.16
2023-04-21T08:19:01.391Z,99425.66
2023-04-21T08:23:04.274Z,99426.78
2023-04-21T08:27:05.888Z,99421.88
2023-04-21T08:31:07.437Z,99424.91
2023-04-21T08:35:09.631Z,99421.91
2023-04-21T08:39:12.605Z,99416.09
2023-04-21T08:43:14.058Z,99401.19
2023-04-21T08:47:16.128Z,99399.28
2023-04-21T08:51:22.100Z,99408.06
2023-04-21T08:55:26.751Z,99406.91
2023-04-21T08:59:28.170Z,99406.88
2023-04-21T09:03:30.014Z,99408.16
2023-04-21T09:07:33.032Z,99413.94
2023-04-21T09:11:35.829Z,99398.84
2023-04-21T09:15:40.433Z,99392.50
2023-04-21T09:19:42.137Z,99391.16
2023-04-21T09:23:45.334Z,99396.50
2023-04-21T09:27:48.271Z,99397.00
2023-04-21T09:31:50.084Z,99385.75
2023-04-21T09:35:52.634Z,99384.22
2023-04-21T09:40:04.271Z,99388.09
2023-04-21T09:44:07.729Z,99380.31
2023-04-21T09:48:10.228Z,99375.88
2023-04-21T09:52:18.940Z,99372.66
2023-04-21T09:56:21.855Z,99376.31
2023-04-21T10:00:26.284Z,99368.00
2023-04-21T10:04:29.336Z,99372.66
2023-04-21T10:08:31.884Z,99368.59
2023-04-21T10:12:33.768Z,99359.28
2023-04-21T10:16:37.320Z,99358.34
2023-04-21T10:20:51.114Z,99347.97
2023-04-21T10:24:55.395Z,99342.03
2023-04-21T10:28:58.725Z,99338.91
2023-04-21T10:33:05.252Z,99339.44
2023-04-21T10:37:22.034Z,99336.44
2023-04-21T10:41:27.403Z,99324.44
2023-04-21T10:45:28.764Z,99332.91
2023-04-21T10:55:10.614Z,99328.88
2023-04-21T10:59:12.480Z,99320.72
2023-04-21T11:03:14.084Z,99323.53
2023-04-21T11:07:17.005Z,99307.06
2023-04-21T11:11:23.801Z,99309.81
2023-04-21T11:15:25.393Z,99309.03
2023-04-21T11:19:26.845Z,99308.44
2023-04-21T11:23:28.277Z,99311.72
2023-04-21T11:27:31.068Z,99298.28
2023-04-21T11:31:33.232Z,99293.47
2023-04-21T11:35:40.139Z,99298.03
2023-04-21T11:39:41.742Z,99288.97
2023-04-21T11:43:45.789Z,99299.66
2023-04-21T11:47:48.234Z,99296.84
2023-04-21T11:51:50.145Z,99292.34
2023-04-21T11:55:51.638Z,99288.00
2023-04-21T11:59:54.695Z,99295.25
2023-04-21T12:03:56.428Z,99288.84
2023-04-21T12:07:58.064Z,99287.03
2023-04-21T12:11:59.492Z,99292.66
2023-04-21T12:16:04.193Z,99295.09
2023-04-21T12:20:07.385Z,99281.91
2023-04-21T12:24:08.855Z,99272.59
2023-04-21T12:28:11.030Z,99290.03
2023-04-21T12:32:13.822Z,99267.88
2023-04-21T12:36:15.351Z,99269.56
2023-04-21T12:40:17.362Z,99264.31
2023-04-21T12:44:18.890Z,99264.72
2023-04-21T12:48:21.837Z,99262.09
2023-04-21T12:52:23.310Z,99260.09
2023-04-21T12:56:25.006Z,99257.47
2023-04-21T13:00:26.439Z,99242.53
2023-04-21T13:04:29.542Z,99254.97
2023-04-21T13:08:31.213Z,99258.94
2023-04-21T13:12:32.834Z,99243.56
2023-04-21T13:16:34.357Z,99251.59
2023-04-21T13:20:37.168Z,99249.41
2023-04-21T13:24:38.624Z,99245.56
2023-04-21T13:28:40.125Z,99240.75
2023-04-21T13:32:42.297Z,99226.50
2023-04-21T13:36:45.188Z,99233.94
2023-04-21T13:40:46.658Z,99240.06
2023-04-21T13:44:48.108Z,99228.53
2023-04-21T13:48:49.654Z,99221.44
2023-04-21T13:52:52.510Z,99219.72
2023-04-21T13:56:54.278Z,99208.50
2023-04-21T14:00:55.727Z,99208.84
2023-04-21T14:04:57.399Z,99210.47
2023-04-21T14:09:00.968Z,99189.72
2023-04-21T14:13:03.135Z,99184.78
2023-04-21T14:17:04.628Z,99184.88
2023-04-21T14:21:06.334Z,99179.00
2023-04-21T14:25:09.690Z,99171.84
2023-04-21T14:29:11.157Z,99182.22
2023-04-21T14:33:12.647Z,99174.69
2023-04-21T14:37:14.168Z,99167.00
2023-04-21T14:41:16.948Z,99170.19
2023-04-21T14:45:18.398Z,99171.25
2023-04-21T14:49:20.492Z,99169.75
2023-04-21T14:53:21.935Z,99165.72
2023-04-21T14:57:24.925Z,99155.38
2023-04-21T15:01:26.614Z,99153.50
2023-04-21T15:05:28.355Z,99154.31
2023-04-21T15:09:29.833Z,99148.06
2023-04-21T15:13:32.898Z,99142.97
2023-04-21T15:17:34.430Z,99146.28
2023-04-21T15:21:35.910Z,99139.78
2023-04-21T15:25:37.364Z,99134.81
2023-04-21T15:29:40.257Z,99149.41
2023-04-21T15:33:41.747Z,99141.63
2023-04-21T15:37:43.192Z,99134.69
2023-04-21T15:41:44.646Z,99135.66
2023-04-21T15:45:47.521Z,99143.28
2023-04-21T15:49:49.003Z,99124.28
2023-04-21T15:53:50.493Z,99121.00
2023-04-21T15:57:51.944Z,99123.53
2023-04-21T16:01:55.087Z,99123.97
2023-04-21T16:05:56.956Z,99115.47
2023-04-21T16:09:58.881Z,99112.47
2023-04-21T16:14:00.440Z,99124.56
2023-04-21T16:18:03.404Z,99112.94
2023-04-21T16:22:04.895Z,99113.13
2023-04-21T16:26:06.544Z,99113.59
2023-04-21T16:30:08.775Z,99122.28
2023-04-21T16:34:11.581Z,99109.59
2023-04-21T16:38:13.060Z,99105.50
2023-04-21T16:42:14.534Z,99112.66
2023-04-21T16:46:16.144Z,99107.84
2023-04-21T16:50:18.999Z,99107.00
2023-04-21T16:54:20.438Z,99107.00
2023-04-21T16:58:21.868Z,99095.34
2023-04-21T17:02:23.477Z,99094.47
2023-04-21T17:06:26.369Z,99107.09
2023-04-21T17:10:27.904Z,99095.19
2023-04-21T17:14:29.498Z,99104.47
2023-04-21T17:18:30.940Z,99102.75
2023-04-21T17:22:33.716Z,99104.59
2023-04-21T17:26:35.379Z,99105.97
2023-04-21T17:30:36.878Z,99105.69
2023-04-21T17:34:38.640Z,99094.41
2023-04-21T17:38:41.909Z,99094.00
2023-04-21T17:42:43.346Z,99094.03
2023-04-21T17:46:44.924Z,99100.19
2023-04-21T17:50:46.615Z,99100.69
2023-04-21T17:54:49.392Z,99099.09
2023-04-21T17:58:50.862Z,99104.03
2023-04-21T18:02:52.397Z,99091.31
2023-04-21T18:06:53.894Z,99105.06
2023-04-21T18:10:56.666Z,99100.03
2023-04-21T18:14:58.112Z,99100.19
2023-04-21T18:18:59.621Z,99104.50
2023-04-21T18:23:01.130Z,99115.47
2023-04-21T18:27:04.065Z,99116.16
2023-04-21T18:31:05.706Z,99109.84
2023-04-21T18:35:07.949Z,99116.41
2023-04-21T18:39:09.548Z,99120.94
2023-04-21T18:43:12.368Z,99107.44
2023-04-21T18:47:13.930Z,99118.28
2023-04-21T18:51:15.396Z,99122.06
2023-04-21T18:55:17.188Z,99124.69
2023-04-21T18:59:19.964Z,99123.50
2023-04-21T19:03:21.687Z,99123.34
2023-04-21T19:07:23.209Z,99127.28
2023-04-21T19:11:24.726Z,99133.53
2023-04-21T19:15:27.572Z,99122.25
2023-04-21T19:19:29.021Z,99129.25
2023-04-21T19:23:30.470Z,99127.06
2023-04-21T19:27:32.015Z,99124.00
2023-04-21T19:31:34.824Z,99122.47
2023-04-21T19:35:36.306Z,99121.81
2023-04-21T19:39:37.732Z,99125.50
2023-04-21T19:43:39.158Z,99123.69
2023-04-21T19:47:42.005Z,99112.84
2023-04-21T19:51:43.464Z,99123.03
2023-04-21T19:55:44.908Z,99108.28
2023-04-21T19:59:46.410Z,99125.94
2023-04-21T20:03:49.392Z,99121.75
2023-04-21T20:07:50.964Z,99117.56
2023-04-21T20:11:52.413Z,99123.25
2023-04-21T20:15:53.944Z,99124.00
2023-04-21T20:19:56.864Z,99116.69
2023-04-21T20:23:58.306Z,99128.56
2023-04-21T20:27:59.892Z,99130.75
2023-04-21T20:32:01.388Z,99135.19
2023-04-21T20:36:04.683Z,99135.19
2023-04-21T20:40:07.230Z,99133.84
2023-04-21T20:44:08.736Z,99141.25
2023-04-21T20:48:10.187Z,99141.00
2023-04-21T20:52:12.989Z,99138.38
2023-04-21T20:56:14.446Z,99142.53
2023-04-21T21:00:16.222Z,99142.22
2023-04-21T21:04:17.998Z,99141.31
2023-04-21T21:08:20.913Z,99140.56
2023-04-21T21:12:22.506Z,99132.25
2023-04-21T21:16:24.067Z,99125.75
2023-04-21T21:20:25.706Z,99143.63
2023-04-21T21:24:28.469Z,99146.25
2023-04-21T21:28:29.975Z,99142.41
2023-04-21T21:32:31.442Z,99147.81
2023-04-21T21:36:33.044Z,99149.84
2023-04-21T21:40:35.850Z,99165.75
2023-04-21T21:44:37.295Z,99162.38
2023-04-21T21:48:38.729Z,99157.91
2023-04-21T21:52:40.239Z,99167.19
2023-04-21T21:56:43.031Z,99165.72
2023-04-21T22:00:44.537Z,99171.72
2023-04-21T22:04:46.131Z,99174.25
2023-04-21T22:08:47.637Z,99176.41
2023-04-21T22:12:50.466Z,99179.72
2023-04-21T22:16:51.946Z,99176.06
2023-04-21T22:20:53.437Z,99177.91
2023-04-21T22:24:54.877Z,99179.22
2023-04-21T22:28:57.726Z,99183.53
2023-04-21T22:32:59.236Z,99186.28
2023-04-21T22:37:00.703Z,99184.84
2023-04-21T22:41:02.156Z,99184.03
2023-04-21T22:45:05.733Z,99184.22
2023-04-21T22:49:07.245Z,99182.72
2023-04-21T22:53:08.746Z,99194.28
2023-04-21T22:57:10.252Z,99185.81
2023-04-21T23:01:13.376Z,99189.44
2023-04-21T23:05:14.851Z,99193.13
2023-04-21T23:09:16.298Z,99193.25
2023-04-21T23:13:17.971Z,99187.81
2023-04-21T23:17:20.788Z,99194.63
2023-04-21T23:21:22.302Z,99195.09
2023-04-21T23:25:23.838Z,99192.63
2023-04-21T23:29:25.365Z,99195.47
2023-04-21T23:33:28.232Z,99190.41
2023-04-21T23:37:29.660Z,99180.41
2023-04-21T23:41:31.185Z,99178.06
2023-04-21T23:45:32.826Z,99177.06
2023-04-21T23:49:35.853Z,99173.75
2023-04-21T23:53:37.622Z,99173.28
2023-04-21T23:57:39.134Z,99170.28
